createdAt,value
2022-09-28T00:01:12.038Z,6.037
2022-09-28T00:03:13.763Z,4.633
2022-09-28T00:05:14.671Z,4.071
2022-09-28T00:07:16.235Z,5.475
2022-09-28T00:09:17.526Z,3.51
2022-09-28T00:11:18.883Z,2.527
2022-09-28T00:13:20.077Z,1.825
2022-09-28T00:15:21.507Z,2.808
2022-09-28T00:17:22.848Z,2.246
2022-09-28T00:19:23.905Z,4.914
2022-09-28T00:21:24.965Z,3.79
2022-09-28T00:23:26.421Z,5.335
2022-09-28T00:25:28.364Z,5.054
2022-09-28T00:27:29.481Z,4.492
2022-09-28T00:29:31.248Z,5.335
2022-09-28T00:31:32.920Z,3.088
2022-09-28T00:33:33.966Z,5.616
2022-09-28T00:35:35.100Z,4.071
2022-09-28T00:37:36.216Z,6.318
2022-09-28T00:39:37.273Z,4.773
2022-09-28T00:41:39.038Z,5.756
2022-09-28T00:43:40.995Z,4.492
2022-09-28T00:45:42.637Z,6.739
2022-09-28T00:47:44.266Z,3.79
2022-09-28T00:49:45.613Z,3.229
2022-09-28T00:53:48.177Z,5.194
2022-09-28T00:55:49.706Z,3.931
2022-09-28T00:57:51.058Z,7.441
2022-09-28T00:59:52.426Z,3.51
2022-09-28T01:01:53.852Z,4.212
2022-09-28T01:05:57.211Z,5.054
2022-09-28T01:07:58.616Z,4.773
2022-09-28T01:09:59.948Z,2.386
2022-09-28T01:12:01.668Z,3.65
2022-09-28T01:16:05.145Z,4.352
2022-09-28T01:18:06.778Z,3.369
2022-09-28T01:20:52.098Z,3.369
2022-09-28T01:22:53.390Z,3.369
2022-09-28T01:24:54.903Z,4.352
2022-09-28T01:26:55.935Z,5.054
2022-09-28T01:30:58.686Z,5.475
2022-09-28T01:33:00.473Z,4.352
2022-09-28T01:35:02.400Z,3.229
2022-09-28T01:37:04.211Z,2.948
2022-09-28T01:39:05.741Z,3.369
2022-09-28T01:41:07.358Z,4.633
2022-09-28T01:43:08.722Z,1.123
2022-09-28T01:45:10.261Z,0.421
2022-09-28T01:47:11.356Z,1.404
2022-09-28T01:49:12.327Z,2.527
2022-09-28T01:51:14.004Z,3.79
2022-09-28T01:53:15.110Z,3.088
2022-09-28T01:55:16.705Z,4.633
2022-09-28T01:57:18.585Z,2.246
2022-09-28T01:59:19.906Z,0.702
2022-09-28T02:01:21.403Z,1.263
2022-09-28T02:03:22.427Z,0
2022-09-28T02:05:24.330Z,0
2022-09-28T02:07:25.592Z,1.825
2022-09-28T02:09:30.537Z,1.263
2022-09-28T02:13:30.816Z,2.246
2022-09-28T02:15:31.869Z,0.14
2022-09-28T02:17:33.411Z,0.702
2022-09-28T02:19:35.296Z,1.684
2022-09-28T02:21:36.985Z,1.123
2022-09-28T02:23:38.801Z,1.825
2022-09-28T02:25:40.326Z,6.318
2022-09-28T02:27:41.895Z,2.527
2022-09-28T02:29:43.577Z,3.369
2022-09-28T02:31:45.110Z,2.808
2022-09-28T02:33:46.882Z,3.51
2022-09-28T02:35:48.529Z,3.51
2022-09-28T02:37:49.858Z,0.28
2022-09-28T02:39:50.969Z,2.667
2022-09-28T02:41:52.762Z,0.561
2022-09-28T02:43:54.013Z,0.14
2022-09-28T02:45:55.697Z,2.106
2022-09-28T02:47:56.929Z,2.667
2022-09-28T02:49:58.411Z,4.071
2022-09-28T02:52:00.179Z,3.369
2022-09-28T02:54:01.957Z,3.369
2022-09-28T02:56:03.249Z,4.212
2022-09-28T02:58:04.213Z,3.51
2022-09-28T03:00:05.277Z,3.369
2022-09-28T03:02:06.634Z,1.684
2022-09-28T03:04:08.192Z,5.054
2022-09-28T03:06:09.619Z,1.404
2022-09-28T03:08:10.682Z,2.527
2022-09-28T03:10:12.495Z,2.106
2022-09-28T03:12:13.892Z,1.684
2022-09-28T03:14:15.364Z,1.965
2022-09-28T03:16:16.447Z,3.931
2022-09-28T03:18:17.863Z,2.808
2022-09-28T03:20:19.562Z,0.28
2022-09-28T03:22:21.309Z,2.246
2022-09-28T03:24:22.918Z,3.931
2022-09-28T03:26:24.244Z,0
2022-09-28T03:28:25.599Z,1.825
2022-09-28T03:30:26.811Z,0.561
2022-09-28T03:32:28.136Z,1.965
2022-09-28T03:34:29.611Z,0
2022-09-28T03:36:31.312Z,0.28
2022-09-28T03:38:32.794Z,1.965
2022-09-28T03:40:34.457Z,0.28
2022-09-28T03:44:37.321Z,0.982
2022-09-28T03:46:38.885Z,0.702
2022-09-28T03:48:39.950Z,0.421
2022-09-28T03:50:41.114Z,1.404
2022-09-28T03:54:47.003Z,0
2022-09-28T03:56:44.856Z,0
2022-09-28T03:58:45.853Z,0
2022-09-28T04:00:47.412Z,2.246
2022-09-28T04:02:49.199Z,0.421
2022-09-28T04:06:52.921Z,1.825
2022-09-28T04:08:54.485Z,0.14
2022-09-28T04:10:56.324Z,0
2022-09-28T04:12:57.618Z,0
2022-09-28T04:14:58.863Z,0.842
2022-09-28T04:16:59.864Z,2.106
2022-09-28T04:19:01.604Z,0.14
2022-09-28T04:21:02.961Z,0
2022-09-28T04:23:03.896Z,0
2022-09-28T04:27:07.166Z,0
2022-09-28T04:29:08.246Z,0
2022-09-28T04:31:10.037Z,1.684
2022-09-28T04:33:11.405Z,1.965
2022-09-28T04:37:14.164Z,1.263
2022-09-28T04:39:15.293Z,0.421
2022-09-28T04:41:16.675Z,0
2022-09-28T04:43:17.851Z,0.982
2022-09-28T04:45:19.613Z,1.544
2022-09-28T04:47:21.399Z,0.842
2022-09-28T04:49:23.055Z,0.14
2022-09-28T04:51:24.430Z,0
2022-09-28T04:53:25.620Z,0.982
2022-09-28T04:55:27.214Z,0.28
2022-09-28T04:57:28.422Z,0.982
2022-09-28T04:59:30.266Z,2.948
2022-09-28T05:01:32.087Z,0.702
2022-09-28T05:03:33.994Z,0.982
2022-09-28T05:05:35.872Z,3.51
2022-09-28T05:09:39.135Z,4.492
2022-09-28T05:11:40.934Z,3.51
2022-09-28T05:13:42.764Z,2.667
2022-09-28T05:15:44.466Z,1.684
2022-09-28T05:19:48.050Z,0
2022-09-28T05:21:49.451Z,2.527
2022-09-28T05:23:51.357Z,0.421
2022-09-28T05:25:52.566Z,3.65
2022-09-28T05:27:53.717Z,3.65
2022-09-28T05:29:55.570Z,2.667
2022-09-28T05:31:57.448Z,0
2022-09-28T05:33:58.499Z,2.246
2022-09-28T05:36:01.397Z,0.702
2022-09-28T05:38:02.014Z,3.229
2022-09-28T05:40:03.684Z,0.421
2022-09-28T05:42:05.350Z,0.702
2022-09-28T05:44:06.378Z,1.684
2022-09-28T05:46:07.908Z,0
2022-09-28T05:48:09.388Z,0
2022-09-28T05:52:11.588Z,0.28
2022-09-28T05:54:12.765Z,0.842
2022-09-28T05:56:14.573Z,2.106
2022-09-28T05:58:16.309Z,0.982
2022-09-28T06:00:17.657Z,0
2022-09-28T06:04:20.874Z,3.51
2022-09-28T06:06:22.254Z,1.544
2022-09-28T06:08:23.898Z,4.071
2022-09-28T06:10:25.051Z,2.527
2022-09-28T06:14:27.169Z,3.088
2022-09-28T06:16:29.147Z,5.616
2022-09-28T06:18:30.879Z,3.088
2022-09-28T06:20:32.244Z,2.246
2022-09-28T06:24:35.973Z,3.79
2022-09-28T06:26:37.063Z,1.684
2022-09-28T06:28:38.557Z,1.404
2022-09-28T06:30:40.383Z,0.561
2022-09-28T06:34:43.331Z,3.931
2022-09-28T06:36:44.550Z,2.808
2022-09-28T06:38:46.356Z,6.177
2022-09-28T06:40:47.369Z,5.054
2022-09-28T06:42:48.708Z,2.106
2022-09-28T06:44:49.888Z,6.318
2022-09-28T06:46:51.794Z,0.561
2022-09-28T06:50:54.856Z,6.739
2022-09-28T06:52:56.720Z,4.914
2022-09-28T06:54:58.525Z,1.404
2022-09-28T06:56:59.619Z,0
2022-09-28T06:59:01.418Z,1.123
2022-09-28T07:01:03.224Z,1.825
2022-09-28T07:03:04.829Z,0.28
2022-09-28T07:05:05.887Z,2.948
2022-09-28T07:07:07.030Z,7.441
2022-09-28T07:09:25.076Z,3.229
2022-09-28T07:11:10.067Z,1.544
2022-09-28T07:13:29.578Z,2.246
2022-09-28T07:15:13.726Z,1.825
2022-09-28T07:17:15.762Z,2.667
2022-09-28T07:19:17.543Z,1.263
2022-09-28T07:21:24.960Z,2.246
2022-09-28T07:23:19.985Z,2.527
2022-09-28T07:25:20.823Z,0.842
2022-09-28T07:27:25.524Z,0.561
2022-09-28T07:29:23.981Z,1.825
2022-09-28T07:31:24.981Z,0.982
2022-09-28T07:33:25.983Z,0.702
2022-09-28T07:35:26.938Z,2.808
2022-09-28T07:37:28.263Z,2.667
2022-09-28T07:39:29.881Z,4.212
2022-09-28T07:41:31.003Z,4.773
2022-09-28T07:43:32.903Z,3.229
2022-09-28T07:45:34.179Z,1.684
2022-09-28T07:47:35.549Z,0.28
2022-09-28T07:49:44.755Z,0.28
2022-09-28T07:51:37.999Z,0.28
2022-09-28T07:53:39.547Z,0.982
2022-09-28T07:55:40.686Z,0.561
2022-09-28T07:57:41.635Z,0.14
2022-09-28T08:01:44.607Z,0
2022-09-28T08:03:45.795Z,3.51
2022-09-28T08:06:30.991Z,1.965
2022-09-28T08:10:34.636Z,0.14
2022-09-28T08:12:35.901Z,1.404
2022-09-28T08:14:37.685Z,3.088
2022-09-28T08:16:40.090Z,0.842
2022-09-28T08:18:41.373Z,2.386
2022-09-28T08:22:44.212Z,1.404
2022-09-28T08:24:45.568Z,4.773
2022-09-28T08:26:47.436Z,1.404
2022-09-28T08:28:48.682Z,1.544
2022-09-28T08:30:49.998Z,3.65
2022-09-28T08:32:51.405Z,4.492
2022-09-28T08:34:52.823Z,0.28
2022-09-28T08:36:54.125Z,2.667
2022-09-28T08:38:55.020Z,4.352
2022-09-28T08:40:56.620Z,3.79
2022-09-28T08:42:57.542Z,2.106
2022-09-28T08:44:58.625Z,2.948
2022-09-28T08:46:59.962Z,0.842
2022-09-28T08:49:20.938Z,1.544
2022-09-28T08:53:04.225Z,2.106
2022-09-28T08:55:05.684Z,7.3
2022-09-28T08:57:07.094Z,2.808
2022-09-28T08:59:08.110Z,4.071
2022-09-28T09:01:09.700Z,6.739
2022-09-28T09:03:10.902Z,1.965
2022-09-28T09:05:12.580Z,0.842
2022-09-28T09:07:13.898Z,1.965
2022-09-28T09:09:15.056Z,1.965
2022-09-28T09:11:16.371Z,1.544
2022-09-28T09:13:18.202Z,0
2022-09-28T09:15:19.691Z,3.229
2022-09-28T09:17:20.610Z,0.842
2022-09-28T09:19:21.876Z,0.842
2022-09-28T09:21:23.637Z,2.527
2022-09-28T09:23:25.117Z,1.544
2022-09-28T09:25:26.811Z,2.386
2022-09-28T09:27:28.140Z,6.458
2022-09-28T09:29:29.118Z,0.842
2022-09-28T09:31:30.701Z,2.948
2022-09-28T09:33:32.092Z,0.561
2022-09-28T09:35:33.600Z,1.123
2022-09-28T09:37:34.871Z,3.229
2022-09-28T09:39:36.018Z,1.544
2022-09-28T09:41:37.234Z,0
2022-09-28T09:43:38.799Z,3.931
2022-09-28T09:45:40.300Z,2.106
2022-09-28T09:47:41.742Z,0.14
2022-09-28T09:49:43.145Z,5.475
2022-09-28T09:51:44.558Z,3.65
2022-09-28T09:53:46.149Z,0.982
2022-09-28T09:55:47.698Z,0.561
2022-09-28T09:57:48.755Z,4.071
2022-09-28T09:59:50.248Z,2.808
2022-09-28T10:01:51.909Z,5.054
2022-09-28T10:03:53.370Z,2.667
2022-09-28T10:05:55.117Z,3.51
2022-09-28T10:07:56.183Z,3.088
2022-09-28T10:09:57.900Z,6.037
2022-09-28T10:11:59.278Z,6.037
2022-09-28T10:14:00.877Z,3.51
2022-09-28T10:16:01.864Z,3.088
2022-09-28T10:20:04.510Z,6.177
2022-09-28T10:22:05.394Z,5.756
2022-09-28T10:24:06.745Z,5.335
2022-09-28T10:26:08.446Z,3.79
2022-09-28T10:28:09.497Z,6.037
2022-09-28T10:30:10.524Z,6.458
2022-09-28T10:32:11.613Z,4.071
2022-09-28T10:34:12.516Z,0.561
2022-09-28T10:36:13.726Z,6.318
2022-09-28T10:38:15.045Z,0.842
2022-09-28T10:40:16.878Z,4.773
2022-09-28T10:42:18.293Z,5.194
2022-09-28T10:46:21.360Z,0.842
2022-09-28T10:48:22.816Z,3.51
2022-09-28T10:50:24.165Z,0.982
2022-09-28T10:52:25.455Z,2.106
2022-09-28T10:56:27.953Z,4.352
2022-09-28T10:58:29.796Z,4.773
2022-09-28T11:00:32.344Z,2.948
2022-09-28T11:02:35.868Z,2.246
2022-09-28T11:06:36.308Z,3.369
2022-09-28T11:08:37.790Z,7.722
2022-09-28T11:10:39.579Z,1.544
2022-09-28T11:12:40.519Z,3.65
2022-09-28T11:16:43.116Z,0.982
2022-09-28T11:18:44.119Z,5.756
2022-09-28T11:22:48.806Z,2.527
2022-09-28T11:24:49.188Z,3.369
2022-09-28T11:26:50.562Z,6.318
2022-09-28T11:28:51.680Z,1.263
2022-09-28T11:30:53.053Z,5.194
2022-09-28T11:32:54.157Z,2.667
2022-09-28T11:34:59.427Z,2.246
2022-09-28T11:36:59.629Z,2.948
2022-09-28T11:38:57.866Z,4.773
2022-09-28T11:40:59.303Z,1.825
2022-09-28T11:43:00.198Z,1.544
2022-09-28T11:45:02.352Z,4.492
2022-09-28T11:47:03.387Z,5.054
2022-09-28T11:49:04.580Z,5.335
2022-09-28T11:51:06.289Z,8.002
2022-09-28T11:53:07.345Z,3.65
2022-09-28T11:55:08.821Z,0.561
2022-09-28T11:57:10.116Z,7.02
2022-09-28T11:59:11.415Z,1.263
2022-09-28T12:01:15.389Z,8.283
2022-09-28T12:03:14.129Z,4.212
2022-09-28T12:05:19.967Z,1.684
2022-09-28T12:07:16.487Z,3.369
2022-09-28T12:09:17.513Z,3.369
2022-09-28T12:11:19.201Z,3.369
2022-09-28T12:13:20.408Z,5.054
2022-09-28T12:15:21.974Z,0.28
2022-09-28T12:17:23.511Z,5.475
2022-09-28T12:19:24.422Z,3.369
2022-09-28T12:21:25.819Z,0.842
2022-09-28T12:23:26.932Z,1.965
2022-09-28T12:25:28.019Z,2.808
2022-09-28T12:27:29.489Z,2.386
2022-09-28T12:29:30.700Z,6.037
2022-09-28T12:31:32.524Z,4.492
2022-09-28T12:33:33.386Z,3.369
2022-09-28T12:37:35.993Z,4.633
2022-09-28T12:39:53.885Z,0.28
2022-09-28T12:41:37.911Z,2.808
2022-09-28T12:43:39.487Z,4.492
2022-09-28T12:47:41.408Z,5.756
2022-09-28T12:50:37.387Z,3.65
2022-09-28T12:51:43.909Z,4.352
2022-09-28T12:53:45.468Z,2.527
2022-09-28T12:57:48.199Z,4.071
2022-09-28T12:59:49.046Z,1.825
2022-09-28T13:01:50.706Z,7.02
2022-09-28T13:03:52.375Z,6.879
2022-09-28T13:05:53.364Z,5.616
2022-09-28T13:07:54.456Z,5.616
2022-09-28T13:09:55.353Z,6.177
2022-09-28T13:11:56.590Z,0.842
2022-09-28T13:13:58.571Z,4.633
2022-09-28T13:15:59.903Z,2.527
2022-09-28T13:18:01.416Z,2.527
2022-09-28T13:20:03.272Z,3.229
2022-09-28T13:22:04.159Z,5.475
2022-09-28T13:24:20.868Z,2.527
2022-09-28T13:26:07.016Z,2.527
2022-09-28T13:28:07.971Z,4.914
2022-09-28T13:30:09.630Z,6.739
2022-09-28T13:32:11.041Z,4.914
2022-09-28T13:34:11.984Z,5.194
2022-09-28T13:36:13.030Z,7.02
2022-09-28T13:38:14.455Z,8.424
2022-09-28T13:40:16.140Z,6.739
2022-09-28T13:42:17.608Z,6.318
2022-09-28T13:44:19.207Z,5.896
2022-09-28T13:46:20.394Z,5.756
2022-09-28T13:48:21.218Z,4.914
2022-09-28T13:50:22.831Z,6.458
2022-09-28T13:52:23.892Z,3.65
2022-09-28T13:54:25.317Z,4.773
2022-09-28T13:56:26.619Z,0
2022-09-28T13:58:28.137Z,5.335
2022-09-28T14:00:29.059Z,1.825
2022-09-28T14:02:30.730Z,1.684
2022-09-28T14:04:32.213Z,0
2022-09-28T14:06:33.290Z,2.106
2022-09-28T14:08:34.462Z,2.948
2022-09-28T14:10:36.328Z,2.808
2022-09-28T14:12:37.306Z,0.982
2022-09-28T14:14:38.838Z,0
2022-09-28T14:16:39.949Z,0.982
2022-09-28T14:18:40.865Z,1.684
2022-09-28T14:20:42.132Z,0
2022-09-28T14:24:44.951Z,3.51
2022-09-28T14:28:48.450Z,1.263
2022-09-28T14:30:49.613Z,1.544
2022-09-28T14:32:50.837Z,3.088
2022-09-28T14:34:52.468Z,3.79
2022-09-28T14:38:54.712Z,3.229
2022-09-28T14:40:56.490Z,3.088
2022-09-28T14:42:57.787Z,4.914
2022-09-28T14:45:01.914Z,2.667
2022-09-28T14:47:00.914Z,1.123
2022-09-28T14:49:02.721Z,2.808
2022-09-28T14:50:04.631Z,1.965
2022-09-28T14:52:06.012Z,1.404
2022-09-28T14:54:06.932Z,0.14
2022-09-28T14:56:07.799Z,1.684
2022-09-28T15:00:10.041Z,2.527
2022-09-28T15:02:12.442Z,1.263
2022-09-28T15:04:13.546Z,0.421
2022-09-28T15:06:14.576Z,0.982
2022-09-28T15:08:15.962Z,0.421
2022-09-28T15:10:17.442Z,1.684
2022-09-28T15:12:18.800Z,2.527
2022-09-28T15:14:20.602Z,2.386
2022-09-28T15:16:22.043Z,1.825
2022-09-28T15:18:23.826Z,1.123
2022-09-28T15:20:25.406Z,1.684
2022-09-28T15:22:26.274Z,3.79
2022-09-28T15:24:28.111Z,4.633
2022-09-28T15:26:29.392Z,2.948
2022-09-28T15:28:31.190Z,6.458
2022-09-28T15:30:32.610Z,7.02
2022-09-28T15:32:33.523Z,0.702
2022-09-28T15:34:34.897Z,2.246
2022-09-28T15:36:36.588Z,4.071
2022-09-28T15:38:38.098Z,3.79
2022-09-28T15:40:39.042Z,0.982
2022-09-28T15:42:40.364Z,0.421
2022-09-28T15:44:41.532Z,1.825
2022-09-28T15:46:42.493Z,0.14
2022-09-28T15:48:44.259Z,0.561
2022-09-28T15:50:45.520Z,2.386
2022-09-28T15:52:46.788Z,1.123
2022-09-28T15:54:47.707Z,5.475
2022-09-28T15:56:49.144Z,2.667
2022-09-28T15:58:50.592Z,3.65
2022-09-28T16:00:51.562Z,0.982
2022-09-28T16:02:53.104Z,3.088
2022-09-28T16:04:54.720Z,4.633
2022-09-28T16:06:55.766Z,3.369
2022-09-28T16:08:57.575Z,0.561
2022-09-28T16:10:58.545Z,2.386
2022-09-28T16:12:59.597Z,0.842
2022-09-28T16:15:00.668Z,0.702
2022-09-28T16:17:02.441Z,1.684
2022-09-28T16:19:03.544Z,4.212
2022-09-28T16:21:04.617Z,0.842
2022-09-28T16:23:05.973Z,1.404
2022-09-28T16:27:08.382Z,0.421
2022-09-28T16:29:10.200Z,1.684
2022-09-28T16:31:11.925Z,0.14
2022-09-28T16:33:13.007Z,0.28
2022-09-28T16:35:14.072Z,0.421
2022-09-28T16:37:15.868Z,0
2022-09-28T16:39:17.668Z,0
2022-09-28T16:41:19.485Z,0.14
2022-09-28T16:43:21.035Z,0
2022-09-28T16:45:22.080Z,0
2022-09-28T16:47:23.684Z,0
2022-09-28T16:49:25.572Z,0
2022-09-28T16:51:26.690Z,0
2022-09-28T16:53:28.587Z,0
2022-09-28T16:55:39.898Z,0
2022-09-28T16:57:31.685Z,0
2022-09-28T16:59:32.738Z,0
2022-09-28T17:01:33.863Z,0
2022-09-28T17:03:34.877Z,0
2022-09-28T17:05:36.168Z,0
2022-09-28T17:07:37.681Z,0
2022-09-28T17:09:38.762Z,0
2022-09-28T17:13:42.187Z,0
2022-09-28T17:15:43.339Z,0
2022-09-28T17:19:46.667Z,0
2022-09-28T17:21:48.530Z,0
2022-09-28T17:23:50.140Z,0
2022-09-28T17:25:51.843Z,0
2022-09-28T17:27:53.080Z,0
2022-09-28T17:29:55.015Z,0
2022-09-28T17:31:56.536Z,1.263
2022-09-28T17:33:58.388Z,2.948
2022-09-28T17:36:00.177Z,0.842
2022-09-28T17:38:01.757Z,1.684
2022-09-28T17:40:03.557Z,0
2022-09-28T17:42:05.411Z,0.982
2022-09-28T17:44:06.709Z,2.386
2022-09-28T17:46:08.450Z,0.982
2022-09-28T17:48:09.570Z,0
2022-09-28T17:50:10.803Z,0
2022-09-28T17:52:12.257Z,0
2022-09-28T17:54:13.766Z,0
2022-09-28T17:56:15.720Z,0
2022-09-28T17:58:16.925Z,2.527
2022-09-28T18:00:18.186Z,0
2022-09-28T18:02:20.107Z,0
2022-09-28T18:04:40.101Z,0
2022-09-28T18:06:22.344Z,1.263
2022-09-28T18:08:23.693Z,0.421
2022-09-28T18:10:25.040Z,0.842
2022-09-28T18:12:26.336Z,0
2022-09-28T18:14:28.203Z,0
2022-09-28T18:16:29.260Z,0
2022-09-28T18:18:30.412Z,0
2022-09-28T18:20:31.598Z,0
2022-09-28T18:22:33.468Z,0
2022-09-28T18:24:34.557Z,0
2022-09-28T18:26:36.154Z,0
2022-09-28T18:28:38.076Z,0
2022-09-28T18:30:39.816Z,0
2022-09-28T18:32:41.684Z,0
2022-09-28T18:34:42.882Z,0
2022-09-28T18:38:45.588Z,0
2022-09-28T18:40:46.635Z,0
2022-09-28T18:42:48.516Z,0
2022-09-28T18:44:49.779Z,0
2022-09-28T18:48:53.143Z,0
2022-09-28T18:50:54.711Z,0
2022-09-28T18:52:56.097Z,0
2022-09-28T18:54:57.918Z,0
2022-09-28T18:56:59.306Z,0
2022-09-28T18:59:01.003Z,0
2022-09-28T19:01:25.404Z,0
2022-09-28T19:03:04.336Z,0
2022-09-28T19:05:05.483Z,0
2022-09-28T19:07:07.125Z,0
2022-09-28T19:09:09.082Z,0
2022-09-28T19:11:10.778Z,0
2022-09-28T19:13:12.339Z,0
2022-09-28T19:15:13.698Z,0
2022-09-28T19:17:14.935Z,0
2022-09-28T19:19:15.984Z,0
2022-09-28T19:21:17.489Z,0
2022-09-28T19:23:19.399Z,0
2022-09-28T19:25:20.509Z,0
2022-09-28T19:27:21.889Z,0
2022-09-28T19:29:23.010Z,0
2022-09-28T19:31:24.392Z,0
2022-09-28T19:33:26.013Z,0
2022-09-28T19:37:29.343Z,0
2022-09-28T19:39:30.338Z,0
2022-09-28T19:41:31.379Z,0
2022-09-28T19:43:32.413Z,0
2022-09-28T19:45:33.386Z,0
2022-09-28T19:47:34.570Z,0
2022-09-28T19:49:35.833Z,0
2022-09-28T19:51:38.780Z,0
2022-09-28T19:53:38.969Z,0
2022-09-28T19:55:40.387Z,0
2022-09-28T19:57:41.703Z,0
2022-09-28T19:59:42.925Z,0
2022-09-28T20:01:44.215Z,0
2022-09-28T20:03:45.993Z,0
2022-09-28T20:05:47.280Z,0
2022-09-28T20:07:48.772Z,0
2022-09-28T20:09:50.434Z,0
2022-09-28T20:11:52.175Z,0
2022-09-28T20:13:53.228Z,0
2022-09-28T20:15:55.153Z,0
2022-09-28T20:19:58.435Z,0
2022-09-28T20:22:00.388Z,0
2022-09-28T20:24:01.567Z,0
2022-09-28T20:26:02.721Z,0
2022-09-28T20:30:05.240Z,0
2022-09-28T20:32:07.221Z,0
2022-09-28T20:34:08.627Z,0
2022-09-28T20:36:09.825Z,0
2022-09-28T20:38:11.751Z,0
2022-09-28T20:40:13.411Z,0
2022-09-28T20:42:15.402Z,0
2022-09-28T20:44:17.511Z,0
2022-09-28T20:46:19.349Z,0
2022-09-28T20:48:20.439Z,0
2022-09-28T20:50:21.977Z,0
2022-09-28T20:52:22.698Z,0
2022-09-28T20:54:23.947Z,0
2022-09-28T20:56:25.328Z,0
2022-09-28T20:58:26.398Z,0
2022-09-28T21:00:27.390Z,0
2022-09-28T21:02:28.701Z,0
2022-09-28T21:04:30.000Z,0
2022-09-28T21:06:31.312Z,0
2022-09-28T21:08:32.410Z,0
2022-09-28T21:10:34.156Z,0
2022-09-28T21:12:35.946Z,0
2022-09-28T21:14:37.318Z,0
2022-09-28T21:16:38.694Z,0
2022-09-28T21:18:40.521Z,0
2022-09-28T21:22:43.958Z,0
2022-09-28T21:24:45.912Z,0
2022-09-28T21:26:47.023Z,0
2022-09-28T21:28:48.174Z,0
2022-09-28T21:30:50.025Z,0
2022-09-28T21:32:51.075Z,0
2022-09-28T21:34:52.056Z,0
2022-09-28T21:35:35.936Z,0
2022-09-28T21:37:37.730Z,1.123
2022-09-28T21:39:39.150Z,0
2022-09-28T21:41:40.771Z,0
2022-09-28T21:43:41.863Z,0.14
2022-09-28T21:45:43.439Z,0
2022-09-28T21:47:44.924Z,0
2022-09-28T21:49:45.942Z,0
2022-09-28T21:51:47.709Z,0
2022-09-28T21:53:48.796Z,0
2022-09-28T21:55:50.631Z,0
2022-09-28T21:57:52.251Z,0
2022-09-28T21:59:53.463Z,0.14
2022-09-28T22:01:54.521Z,0.982
2022-09-28T22:03:56.361Z,0
2022-09-28T22:05:57.987Z,0
2022-09-28T22:07:59.171Z,0.842
2022-09-28T22:10:00.337Z,0
2022-09-28T22:12:01.528Z,0
2022-09-28T22:14:03.367Z,0
2022-09-28T22:16:04.847Z,0
2022-09-28T22:18:06.633Z,0
2022-09-28T22:20:08.120Z,0
2022-09-28T22:22:09.858Z,0
2022-09-28T22:24:11.085Z,0
2022-09-28T22:26:12.567Z,0
2022-09-28T22:28:14.485Z,0
2022-09-28T22:30:16.125Z,0
2022-09-28T22:32:17.813Z,0
2022-09-28T22:34:19.344Z,0
2022-09-28T22:36:21.145Z,0
2022-09-28T22:38:22.328Z,0
2022-09-28T22:40:23.781Z,0
2022-09-28T22:42:25.062Z,0
2022-09-28T22:44:26.823Z,0
2022-09-28T22:48:29.559Z,0
2022-09-28T22:50:30.790Z,0
2022-09-28T22:52:32.023Z,0
2022-09-28T22:54:33.143Z,0
2022-09-28T22:56:34.654Z,0
2022-09-28T22:58:36.237Z,0
2022-09-28T23:00:37.694Z,0
2022-09-28T23:02:38.866Z,0
2022-09-28T23:04:39.885Z,0
2022-09-28T23:06:41.370Z,1.404
2022-09-28T23:08:42.420Z,1.123
2022-09-28T23:10:43.523Z,0.14
2022-09-28T23:12:44.677Z,0
2022-09-28T23:14:46.345Z,0
2022-09-28T23:16:47.476Z,0
2022-09-28T23:20:50.571Z,0
2022-09-28T23:22:52.152Z,0
2022-09-28T23:24:53.787Z,0
2022-09-28T23:26:55.435Z,0
2022-09-28T23:30:58.451Z,0
2022-09-28T23:32:59.464Z,0
2022-09-28T23:35:01.194Z,0
2022-09-28T23:37:02.564Z,0
2022-09-28T23:39:04.436Z,0
2022-09-28T23:43:07.234Z,0
2022-09-28T23:45:08.979Z,0
2022-09-28T23:47:10.277Z,0
2022-09-28T23:49:12.109Z,0
2022-09-28T23:53:14.959Z,0
2022-09-28T23:55:16.222Z,0
2022-09-28T23:57:17.204Z,0
2022-09-28T23:59:18.588Z,0
